createdAt,value
2022-10-18T00:00:07.738Z,22.93
2022-10-18T00:02:34.119Z,22.93
2022-10-18T00:05:01.864Z,22.93
2022-10-18T00:07:28.397Z,22.93
2022-10-18T00:09:54.773Z,22.92
2022-10-18T00:12:21.188Z,22.92
2022-10-18T00:14:51.070Z,22.91
2022-10-18T00:17:17.375Z,22.92
2022-10-18T00:19:44.074Z,22.92
2022-10-18T00:22:10.499Z,22.90
2022-10-18T00:24:37.093Z,22.90
2022-10-18T00:27:03.379Z,22.90
2022-10-18T00:29:29.808Z,22.89
2022-10-18T00:31:56.214Z,22.89
2022-10-18T00:34:22.444Z,22.90
2022-10-18T00:36:48.765Z,22.90
2022-10-18T00:39:18.056Z,22.89
2022-10-18T00:41:45.017Z,22.89
2022-10-18T00:44:11.218Z,22.89
2022-10-18T00:46:39.101Z,22.90
2022-10-18T00:49:07.923Z,22.90
2022-10-18T00:51:36.854Z,22.90
2022-10-18T00:54:04.242Z,22.88
2022-10-18T00:56:30.606Z,22.86
2022-10-18T00:58:57.289Z,22.86
2022-10-18T01:01:27.450Z,22.85
2022-10-18T01:03:55.315Z,22.86
2022-10-18T01:06:24.083Z,22.86
2022-10-18T01:08:58.949Z,22.83
2022-10-18T01:11:33.966Z,22.84
2022-10-18T01:14:26.233Z,22.83
2022-10-18T01:17:08.447Z,22.83
2022-10-18T01:19:53.582Z,22.83
2022-10-18T01:22:29.082Z,22.82
2022-10-18T01:27:36.165Z,22.80
2022-10-18T01:30:22.342Z,22.78
2022-10-18T01:32:53.908Z,22.77
2022-10-18T01:35:29.456Z,22.75
2022-10-18T01:37:57.814Z,22.74
2022-10-18T01:40:24.832Z,22.73
2022-10-18T01:42:51.090Z,22.72
2022-10-18T01:45:18.811Z,22.71
2022-10-18T01:47:46.629Z,22.71
2022-10-18T01:50:14.281Z,22.70
2022-10-18T01:52:47.929Z,22.70
2022-10-18T01:55:14.502Z,22.70
2022-10-18T01:57:44.637Z,22.71
2022-10-18T02:00:13.681Z,22.72
2022-10-18T02:02:39.978Z,22.73
2022-10-18T02:05:06.362Z,22.74
2022-10-18T02:07:36.385Z,22.74
2022-10-18T02:10:10.553Z,22.75
2022-10-18T02:12:40.154Z,22.75
2022-10-18T02:15:07.553Z,22.74
2022-10-18T02:17:33.955Z,22.74
2022-10-18T02:20:02.215Z,22.72
2022-10-18T02:22:31.520Z,22.72
2022-10-18T02:25:00.577Z,22.70
2022-10-18T02:27:26.875Z,22.69
2022-10-18T02:29:53.615Z,22.69
2022-10-18T02:32:25.481Z,22.69
2022-10-18T02:35:11.249Z,22.69
2022-10-18T02:37:39.394Z,22.68
2022-10-18T02:40:07.163Z,22.67
2022-10-18T02:42:36.367Z,22.66
2022-10-18T02:45:03.564Z,22.64
2022-10-18T02:47:30.318Z,22.64
2022-10-18T02:49:57.325Z,22.64
2022-10-18T02:52:23.806Z,22.64
2022-10-18T02:54:50.078Z,22.64
2022-10-18T02:57:16.312Z,22.64
2022-10-18T02:59:42.569Z,22.64
2022-10-18T03:02:08.834Z,22.63
2022-10-18T03:04:35.112Z,22.63
2022-10-18T03:07:01.327Z,22.63
2022-10-18T03:09:27.585Z,22.63
2022-10-18T03:11:53.861Z,22.64
2022-10-18T03:14:20.194Z,22.64
2022-10-18T03:16:46.464Z,22.65
2022-10-18T03:19:13.871Z,22.66
2022-10-18T03:21:40.144Z,22.67
2022-10-18T03:24:06.786Z,22.69
2022-10-18T03:26:33.208Z,22.70
2022-10-18T03:28:59.768Z,22.70
2022-10-18T03:31:26.144Z,22.73
2022-10-18T03:33:52.399Z,22.72
2022-10-18T03:36:18.697Z,22.73
2022-10-18T03:38:45.291Z,22.72
2022-10-18T03:41:11.585Z,22.71
2022-10-18T03:43:37.852Z,22.72
2022-10-18T03:46:04.388Z,22.72
2022-10-18T03:48:30.905Z,22.71
2022-10-18T03:50:57.423Z,22.69
2022-10-18T03:53:23.739Z,22.68
2022-10-18T03:55:50.681Z,22.65
2022-10-18T03:58:16.915Z,22.63
2022-10-18T04:00:43.163Z,22.62
2022-10-18T04:03:09.969Z,22.60
2022-10-18T04:05:36.746Z,22.59
2022-10-18T04:08:03.941Z,22.57
2022-10-18T04:10:30.183Z,22.56
2022-10-18T04:12:57.732Z,22.55
2022-10-18T04:15:24.022Z,22.56
2022-10-18T04:17:50.316Z,22.56
2022-10-18T04:20:16.726Z,22.57
2022-10-18T04:22:43.288Z,22.57
2022-10-18T04:25:09.629Z,22.58
2022-10-18T04:27:36.162Z,22.60
2022-10-18T04:30:02.847Z,22.63
2022-10-18T04:32:29.393Z,22.64
2022-10-18T04:34:55.646Z,22.65
2022-10-18T04:37:21.868Z,22.67
2022-10-18T04:39:51.251Z,22.68
2022-10-18T04:42:20.231Z,22.69
2022-10-18T04:44:46.711Z,22.69
2022-10-18T04:47:13.079Z,22.69
2022-10-18T04:49:39.532Z,22.69
2022-10-18T04:52:05.980Z,22.69
2022-10-18T04:54:32.253Z,22.69
2022-10-18T04:56:58.619Z,22.70
2022-10-18T04:59:24.862Z,22.68
2022-10-18T05:01:51.359Z,22.69
2022-10-18T05:04:17.706Z,22.69
2022-10-18T05:06:45.310Z,22.69
2022-10-18T05:09:11.595Z,22.71
2022-10-18T05:11:37.927Z,22.70
2022-10-18T05:14:05.703Z,22.70
2022-10-18T05:16:32.982Z,22.70
2022-10-18T05:18:59.899Z,22.68
2022-10-18T05:21:26.151Z,22.69
2022-10-18T05:23:55.147Z,22.71
2022-10-18T05:26:21.450Z,22.69
2022-10-18T05:28:49.060Z,22.70
2022-10-18T05:31:15.350Z,22.70
2022-10-18T05:33:41.669Z,22.70
2022-10-18T05:36:10.133Z,22.70
2022-10-18T05:38:42.562Z,22.72
2022-10-18T05:41:09.625Z,22.72
2022-10-18T05:43:36.075Z,22.70
2022-10-18T05:46:02.377Z,22.71
2022-10-18T05:48:28.977Z,22.70
2022-10-18T05:50:57.711Z,22.69
2022-10-18T05:53:36.139Z,22.69
2022-10-18T05:56:03.542Z,22.70
2022-10-18T05:58:29.895Z,22.70
2022-10-18T06:00:58.757Z,22.71
2022-10-18T06:03:25.148Z,22.71
2022-10-18T06:05:51.524Z,22.71
2022-10-18T06:08:17.767Z,22.71
2022-10-18T06:10:44.062Z,22.71
2022-10-18T06:13:10.375Z,22.72
2022-10-18T06:15:36.672Z,22.72
2022-10-18T06:18:02.965Z,22.71
2022-10-18T06:20:30.199Z,22.71
2022-10-18T06:22:56.739Z,22.71
2022-10-18T06:25:23.011Z,22.70
2022-10-18T06:27:49.482Z,22.70
2022-10-18T06:30:15.741Z,22.69
2022-10-18T06:32:41.970Z,22.69
2022-10-18T06:35:08.488Z,22.70
2022-10-18T06:37:35.680Z,22.69
2022-10-18T06:40:02.294Z,22.70
2022-10-18T06:42:28.895Z,22.70
2022-10-18T06:44:55.158Z,22.71
2022-10-18T06:47:21.369Z,22.71
2022-10-18T06:49:47.798Z,22.73
2022-10-18T06:52:16.507Z,22.73
2022-10-18T06:54:45.232Z,22.73
2022-10-18T06:57:11.658Z,22.72
2022-10-18T06:59:38.268Z,22.72
2022-10-18T07:02:04.597Z,22.70
2022-10-18T07:04:30.976Z,22.70
2022-10-18T07:06:57.303Z,22.69
2022-10-18T07:09:23.584Z,22.69
2022-10-18T07:11:51.382Z,22.68
2022-10-18T07:14:17.637Z,22.68
2022-10-18T07:16:44.452Z,22.67
2022-10-18T07:19:10.866Z,22.67
2022-10-18T07:21:37.140Z,22.67
2022-10-18T07:24:03.524Z,22.68
2022-10-18T07:26:31.230Z,22.69
2022-10-18T07:29:02.171Z,22.70
2022-10-18T07:31:28.945Z,22.70
2022-10-18T07:33:55.436Z,22.72
2022-10-18T07:36:22.137Z,22.71
2022-10-18T07:38:48.797Z,22.71
2022-10-18T07:41:15.210Z,22.75
2022-10-18T07:43:43.155Z,22.74
2022-10-18T07:46:09.612Z,22.77
2022-10-18T07:48:36.286Z,22.78
2022-10-18T07:51:03.057Z,22.78
2022-10-18T07:53:29.590Z,22.80
2022-10-18T07:56:01.427Z,22.82
2022-10-18T07:58:31.076Z,22.82
2022-10-18T08:00:57.402Z,22.84
2022-10-18T08:03:23.709Z,22.85
2022-10-18T08:05:53.969Z,22.85
2022-10-18T08:08:23.799Z,22.87
2022-10-18T08:10:50.346Z,22.88
2022-10-18T08:13:17.010Z,22.90
2022-10-18T08:15:43.593Z,22.91
2022-10-18T08:18:10.144Z,22.90
2022-10-18T08:20:37.070Z,22.90
2022-10-18T08:23:04.007Z,22.91
2022-10-18T08:25:30.950Z,22.92
2022-10-18T08:27:57.627Z,22.91
2022-10-18T08:30:23.938Z,22.92
2022-10-18T08:32:50.187Z,22.93
2022-10-18T08:35:16.512Z,22.95
2022-10-18T08:37:43.731Z,22.96
2022-10-18T08:40:10.985Z,22.98
2022-10-18T08:42:57.867Z,22.98
2022-10-18T08:45:37.741Z,22.99
2022-10-18T08:48:16.236Z,23.01
2022-10-18T08:50:42.832Z,23.03
2022-10-18T08:53:27.149Z,23.04
2022-10-18T08:55:57.946Z,23.05
2022-10-18T08:58:30.892Z,23.06
2022-10-18T09:01:08.509Z,23.08
2022-10-18T09:03:40.881Z,23.09
2022-10-18T09:06:27.904Z,23.09
2022-10-18T09:09:11.353Z,23.11
2022-10-18T09:11:59.482Z,23.09
2022-10-18T09:14:47.013Z,23.10
2022-10-18T09:17:27.973Z,23.08
2022-10-18T09:20:09.925Z,23.09
2022-10-18T09:22:48.452Z,23.09
2022-10-18T09:25:14.912Z,23.10
2022-10-18T09:27:45.789Z,23.11
2022-10-18T09:30:27.491Z,23.12
2022-10-18T09:33:02.578Z,23.13
2022-10-18T09:35:50.907Z,23.15
2022-10-18T09:38:19.699Z,23.16
2022-10-18T09:40:54.715Z,23.19
2022-10-18T09:43:26.211Z,23.22
2022-10-18T09:45:53.797Z,23.24
2022-10-18T09:48:20.235Z,23.26
2022-10-18T09:50:50.783Z,23.30
2022-10-18T09:53:28.673Z,23.34
2022-10-18T09:55:58.120Z,23.38
2022-10-18T09:58:26.161Z,23.42
2022-10-18T10:00:54.383Z,23.48
2022-10-18T10:03:20.808Z,23.53
2022-10-18T10:05:47.265Z,23.58
2022-10-18T10:08:13.828Z,23.65
2022-10-18T10:10:41.036Z,23.73
2022-10-18T10:13:07.270Z,23.80
2022-10-18T10:15:37.144Z,23.87
2022-10-18T10:18:17.593Z,23.93
2022-10-18T10:20:45.333Z,24.00
2022-10-18T10:23:29.595Z,24.04
2022-10-18T10:26:01.071Z,24.08
2022-10-18T10:28:29.025Z,24.13
2022-10-18T10:31:15.296Z,24.18
2022-10-18T10:33:44.990Z,24.22
2022-10-18T10:36:20.303Z,24.26
2022-10-18T10:39:01.989Z,24.28
2022-10-18T10:41:28.330Z,24.30
2022-10-18T10:43:54.669Z,24.29
2022-10-18T10:46:23.071Z,24.31
2022-10-18T10:49:27.843Z,24.30
2022-10-18T10:52:02.402Z,24.26
2022-10-18T10:54:36.945Z,24.23
2022-10-18T10:57:13.363Z,24.21
2022-10-18T10:59:43.535Z,24.17
2022-10-18T11:02:20.832Z,24.15
2022-10-18T11:04:55.545Z,24.14
2022-10-18T11:07:33.276Z,24.14
2022-10-18T11:10:05.919Z,24.15
2022-10-18T11:12:33.494Z,24.13
2022-10-18T11:15:12.077Z,24.14
2022-10-18T11:17:56.421Z,24.13
2022-10-18T11:20:27.546Z,24.13
2022-10-18T11:22:56.596Z,24.13
2022-10-18T11:25:25.202Z,24.14
2022-10-18T11:27:58.985Z,24.13
2022-10-18T11:30:44.113Z,24.18
2022-10-18T11:33:56.245Z,24.20
2022-10-18T11:36:40.389Z,24.24
2022-10-18T11:39:28.039Z,24.28
2022-10-18T11:42:07.658Z,24.31
2022-10-18T11:44:58.306Z,24.34
2022-10-18T11:47:37.139Z,24.35
2022-10-18T11:50:19.395Z,24.39
2022-10-18T11:52:56.222Z,24.43
2022-10-18T11:55:39.972Z,24.47
2022-10-18T11:58:13.827Z,24.52
2022-10-18T12:00:53.405Z,24.56
2022-10-18T12:03:34.074Z,24.63
2022-10-18T12:06:03.470Z,24.68
2022-10-18T12:08:38.730Z,24.72
2022-10-18T12:11:27.227Z,24.73
2022-10-18T12:13:57.034Z,24.75
2022-10-18T12:16:45.457Z,24.73
2022-10-18T12:19:22.052Z,24.75
2022-10-18T12:21:51.775Z,24.77
2022-10-18T12:24:22.511Z,24.81
2022-10-18T12:26:52.082Z,24.82
2022-10-18T12:29:27.817Z,24.82
2022-10-18T12:31:56.735Z,24.81
2022-10-18T12:34:23.039Z,24.79
2022-10-18T12:37:08.050Z,24.78
2022-10-18T12:40:05.500Z,24.76
2022-10-18T12:42:33.830Z,24.77
2022-10-18T12:45:22.859Z,24.78
2022-10-18T12:47:49.188Z,24.80
2022-10-18T12:50:36.024Z,24.82
2022-10-18T12:53:07.784Z,24.86
2022-10-18T12:55:37.962Z,24.89
2022-10-18T12:58:13.315Z,24.93
2022-10-18T13:00:41.599Z,24.97
2022-10-18T13:03:14.395Z,25.00
2022-10-18T13:05:55.685Z,25.02
2022-10-18T13:08:31.696Z,25.05
2022-10-18T13:11:10.339Z,25.08
2022-10-18T13:13:40.210Z,25.09
2022-10-18T13:16:22.687Z,25.13
2022-10-18T13:18:57.291Z,25.17
2022-10-18T13:21:31.543Z,25.21
2022-10-18T13:24:04.351Z,25.29
2022-10-18T13:26:31.923Z,25.36
2022-10-18T13:29:07.674Z,25.41
2022-10-18T13:31:47.798Z,25.48
2022-10-18T13:34:34.753Z,25.56
2022-10-18T13:37:06.522Z,25.67
2022-10-18T13:39:33.133Z,25.75
2022-10-18T13:42:00.648Z,25.80
2022-10-18T13:44:28.810Z,25.86
2022-10-18T13:46:55.100Z,25.93
2022-10-18T13:49:39.673Z,25.97
2022-10-18T13:52:09.050Z,26.00
2022-10-18T13:54:35.461Z,26.01
2022-10-18T13:57:04.473Z,26.02
2022-10-18T13:59:49.876Z,26.01
2022-10-18T14:02:22.380Z,25.98
2022-10-18T14:05:16.564Z,25.95
2022-10-18T14:07:48.414Z,25.89
2022-10-18T14:10:29.757Z,25.86
2022-10-18T14:13:16.950Z,25.80
2022-10-18T14:15:44.035Z,25.75
2022-10-18T14:18:15.410Z,25.71
2022-10-18T14:21:01.501Z,25.67
2022-10-18T14:23:35.595Z,25.62
2022-10-18T14:26:08.650Z,25.61
2022-10-18T14:28:55.185Z,25.58
2022-10-18T14:31:21.402Z,25.56
2022-10-18T14:33:57.634Z,25.54
2022-10-18T14:36:26.354Z,25.52
2022-10-18T14:39:00.474Z,25.49
2022-10-18T14:41:31.343Z,25.45
2022-10-18T14:44:16.065Z,25.42
2022-10-18T14:46:50.826Z,25.38
2022-10-18T14:49:18.506Z,25.34
2022-10-18T14:51:46.397Z,25.29
2022-10-18T14:54:17.656Z,25.24
2022-10-18T14:56:44.734Z,25.19
2022-10-18T14:59:21.739Z,25.16
2022-10-18T15:01:59.107Z,25.12
2022-10-18T15:04:32.639Z,25.08
2022-10-18T15:07:03.651Z,25.04
2022-10-18T15:09:31.550Z,25.02
2022-10-18T15:11:57.980Z,24.98
2022-10-18T15:14:26.028Z,24.93
2022-10-18T15:16:57.373Z,24.88
2022-10-18T15:19:27.328Z,24.84
2022-10-18T15:22:08.052Z,24.81
2022-10-18T15:24:41.770Z,24.76
2022-10-18T15:27:20.997Z,24.72
2022-10-18T15:29:47.594Z,24.66
2022-10-18T15:32:24.965Z,24.60
2022-10-18T15:34:51.648Z,24.55
2022-10-18T15:37:26.273Z,24.50
2022-10-18T15:40:13.068Z,24.45
2022-10-18T15:42:39.382Z,24.40
2022-10-18T15:45:25.606Z,24.35
2022-10-18T15:48:00.922Z,24.28
2022-10-18T15:50:39.632Z,24.22
2022-10-18T15:53:26.204Z,24.17
2022-10-18T15:55:55.738Z,24.11
2022-10-18T15:58:27.468Z,24.05
2022-10-18T16:00:57.822Z,23.99
2022-10-18T16:03:24.586Z,23.94
2022-10-18T16:05:59.791Z,23.88
2022-10-18T16:08:29.454Z,23.81
2022-10-18T16:10:56.213Z,23.76
2022-10-18T16:13:22.722Z,23.71
2022-10-18T16:15:49.046Z,23.64
2022-10-18T16:18:16.919Z,23.57
2022-10-18T16:20:43.483Z,23.49
2022-10-18T16:23:17.025Z,23.42
2022-10-18T16:25:43.962Z,23.32
2022-10-18T16:28:18.231Z,23.24
2022-10-18T16:30:47.156Z,23.14
2022-10-18T16:33:16.715Z,23.04
2022-10-18T16:35:46.899Z,22.93
2022-10-18T16:38:21.508Z,22.82
2022-10-18T16:40:47.816Z,22.72
2022-10-18T16:43:14.417Z,22.61
2022-10-18T16:45:41.012Z,22.53
2022-10-18T16:48:10.106Z,22.42
2022-10-18T16:50:36.519Z,22.32
2022-10-18T16:53:02.831Z,22.22
2022-10-18T16:55:29.661Z,22.12
2022-10-18T16:57:56.123Z,22.01
2022-10-18T17:00:25.838Z,21.91
2022-10-18T17:02:52.359Z,21.79
2022-10-18T17:05:19.085Z,21.70
2022-10-18T17:07:45.721Z,21.58
2022-10-18T17:10:15.863Z,21.47
2022-10-18T17:12:42.468Z,21.38
2022-10-18T17:15:09.133Z,21.28
2022-10-18T17:17:35.934Z,21.20
2022-10-18T17:20:02.425Z,21.12
2022-10-18T17:22:28.691Z,21.05
2022-10-18T17:24:55.067Z,20.97
2022-10-18T17:27:22.666Z,20.90
2022-10-18T17:29:49.510Z,20.84
2022-10-18T17:32:16.613Z,20.77
2022-10-18T17:34:42.848Z,20.70
2022-10-18T17:37:09.165Z,20.64
2022-10-18T17:39:35.888Z,20.56
2022-10-18T17:42:02.349Z,20.51
2022-10-18T17:44:28.638Z,20.45
2022-10-18T17:46:54.954Z,20.40
2022-10-18T17:49:22.094Z,20.36
2022-10-18T17:51:48.411Z,20.29
2022-10-18T17:54:14.669Z,20.24
2022-10-18T17:56:40.958Z,20.19
2022-10-18T17:59:07.578Z,20.16
2022-10-18T18:01:33.959Z,20.11
2022-10-18T18:04:02.027Z,20.07
2022-10-18T18:06:33.767Z,20.03
2022-10-18T18:09:01.460Z,19.97
2022-10-18T18:11:28.456Z,19.92
2022-10-18T18:13:56.200Z,19.86
2022-10-18T18:16:23.701Z,19.81
2022-10-18T18:18:51.794Z,19.76
2022-10-18T18:21:18.516Z,19.72
2022-10-18T18:23:44.971Z,19.67
2022-10-18T18:26:11.527Z,19.64
2022-10-18T18:28:38.091Z,19.59
2022-10-18T18:31:05.750Z,19.55
2022-10-18T18:33:32.600Z,19.50
2022-10-18T18:36:00.395Z,19.45
2022-10-18T18:38:26.993Z,19.40
2022-10-18T18:41:05.287Z,19.37
2022-10-18T18:43:31.775Z,19.30
2022-10-18T18:45:58.252Z,19.25
2022-10-18T18:48:25.648Z,19.20
2022-10-18T18:50:53.036Z,19.16
2022-10-18T18:53:19.832Z,19.13
2022-10-18T18:55:46.483Z,19.09
2022-10-18T18:58:12.924Z,19.07
2022-10-18T19:00:43.420Z,19.03
2022-10-18T19:03:11.677Z,18.98
2022-10-18T19:05:40.504Z,18.96
2022-10-18T19:08:06.805Z,18.92
2022-10-18T19:10:33.064Z,18.90
2022-10-18T19:12:59.922Z,18.88
2022-10-18T19:15:26.307Z,18.85
2022-10-18T19:17:52.791Z,18.83
2022-10-18T19:20:19.181Z,18.78
2022-10-18T19:22:45.841Z,18.74
2022-10-18T19:25:12.084Z,18.69
2022-10-18T19:27:38.527Z,18.64
2022-10-18T19:30:06.203Z,18.61
2022-10-18T19:32:34.628Z,18.59
2022-10-18T19:35:02.063Z,18.54
2022-10-18T19:37:29.491Z,18.51
2022-10-18T19:39:55.836Z,18.46
2022-10-18T19:42:24.199Z,18.45
2022-10-18T19:44:52.559Z,18.42
2022-10-18T19:47:20.585Z,18.40
2022-10-18T19:49:47.876Z,18.38
2022-10-18T19:52:16.097Z,18.36
2022-10-18T19:54:45.013Z,18.35
2022-10-18T19:57:11.576Z,18.34
2022-10-18T19:59:38.454Z,18.32
2022-10-18T20:02:05.043Z,18.30
2022-10-18T20:04:34.600Z,18.30
2022-10-18T20:07:03.946Z,18.27
2022-10-18T20:09:30.475Z,18.24
2022-10-18T20:11:57.669Z,18.21
2022-10-18T20:14:24.124Z,18.18
2022-10-18T20:16:51.759Z,18.15
2022-10-18T20:19:18.121Z,18.12
2022-10-18T20:21:44.644Z,18.09
2022-10-18T20:24:12.507Z,18.05
2022-10-18T20:26:39.691Z,18.00
2022-10-18T20:29:07.540Z,17.96
2022-10-18T20:31:36.220Z,17.92
2022-10-18T20:34:04.344Z,17.89
2022-10-18T20:36:31.599Z,17.84
2022-10-18T20:38:58.149Z,17.78
2022-10-18T20:41:26.106Z,17.73
2022-10-18T20:43:56.784Z,17.68
2022-10-18T20:46:23.339Z,17.64
2022-10-18T20:48:54.106Z,17.61
2022-10-18T20:51:20.886Z,17.57
2022-10-18T20:53:47.357Z,17.54
2022-10-18T20:56:14.917Z,17.50
2022-10-18T20:58:42.638Z,17.45
2022-10-18T21:01:10.231Z,17.42
2022-10-18T21:03:37.887Z,17.38
2022-10-18T21:06:10.269Z,17.35
2022-10-18T21:08:36.582Z,17.32
2022-10-18T21:11:02.816Z,17.30
2022-10-18T21:13:29.171Z,17.27
2022-10-18T21:15:56.271Z,17.25
2022-10-18T21:18:29.678Z,17.21
2022-10-18T21:20:55.971Z,17.18
2022-10-18T21:23:23.386Z,17.15
2022-10-18T21:25:49.834Z,17.11
2022-10-18T21:28:16.429Z,17.07
2022-10-18T21:30:42.840Z,17.04
2022-10-18T21:33:09.100Z,17.00
2022-10-18T21:35:38.799Z,16.95
2022-10-18T21:38:05.275Z,16.93
2022-10-18T21:40:33.214Z,16.90
2022-10-18T21:42:59.652Z,16.87
2022-10-18T21:45:27.207Z,16.84
2022-10-18T21:47:53.548Z,16.81
2022-10-18T21:50:19.991Z,16.77
2022-10-18T21:52:46.386Z,16.75
2022-10-18T21:55:12.666Z,16.72
2022-10-18T21:57:38.948Z,16.69
2022-10-18T22:00:06.105Z,16.67
2022-10-18T22:02:32.580Z,16.62
2022-10-18T22:04:59.151Z,16.59
2022-10-18T22:07:25.823Z,16.56
2022-10-18T22:09:52.044Z,16.53
2022-10-18T22:12:18.636Z,16.50
2022-10-18T22:14:44.908Z,16.48
2022-10-18T22:17:11.179Z,16.44
2022-10-18T22:19:37.913Z,16.40
2022-10-18T22:22:05.193Z,16.38
2022-10-18T22:24:31.511Z,16.35
2022-10-18T22:26:57.830Z,16.33
2022-10-18T22:29:24.165Z,16.29
2022-10-18T22:31:51.761Z,16.26
2022-10-18T22:34:19.716Z,16.23
2022-10-18T22:36:46.414Z,16.20
2022-10-18T22:39:14.384Z,16.18
2022-10-18T22:41:41.018Z,16.16
2022-10-18T22:44:08.304Z,16.12
2022-10-18T22:46:35.104Z,16.08
2022-10-18T22:49:01.554Z,16.06
2022-10-18T22:51:27.867Z,16.03
2022-10-18T22:53:54.161Z,15.99
2022-10-18T22:56:21.381Z,15.98
2022-10-18T22:58:48.160Z,15.94
2022-10-18T23:01:16.180Z,15.91
2022-10-18T23:03:43.082Z,15.88
2022-10-18T23:06:20.165Z,15.85
2022-10-18T23:08:46.852Z,15.82
2022-10-18T23:11:13.330Z,15.78
2022-10-18T23:13:39.855Z,15.75
2022-10-18T23:16:06.336Z,15.73
2022-10-18T23:18:33.190Z,15.69
2022-10-18T23:21:08.581Z,15.69
2022-10-18T23:23:35.786Z,15.65
2022-10-18T23:26:06.414Z,15.64
2022-10-18T23:28:34.583Z,15.63
2022-10-18T23:31:04.909Z,15.61
2022-10-18T23:33:31.379Z,15.61
2022-10-18T23:35:58.665Z,15.59
2022-10-18T23:38:24.927Z,15.57
2022-10-18T23:40:51.213Z,15.55
2022-10-18T23:43:17.627Z,15.54
2022-10-18T23:45:44.337Z,15.51
2022-10-18T23:48:10.583Z,15.50
2022-10-18T23:50:37.104Z,15.47
2022-10-18T23:53:03.378Z,15.45
2022-10-18T23:55:29.946Z,15.41
2022-10-18T23:57:56.654Z,15.40
